Time;durP1;ratioP1;P1;durP2;ratioP2;P2;SDS_P1;SDS_P2;PMS_P1;PMS_P2;Temp;Humidity;BMP_temperature;BMP_pressure;BME280_temperature;BME280_humidity;BME280_pressure;Samples;Min_cycle;Max_cycle;Signal;HPM_P1;HPM_P2
2020/12/01 00:04:28;;;;;;;30.83;16.92;;;3.70;99.90;;;;;;12472621;28;20049;-39
2020/12/01 00:10:34;;;;;;;26.80;16.98;;;3.80;99.90;;;;;;12466101;28;20084;-39
2020/12/01 00:16:35;;;;;;;29.38;16.55;;;3.80;99.90;;;;;;12503554;28;20601;-39
2020/12/01 00:22:37;;;;;;;26.33;15.73;;;3.80;99.90;;;;;;12501013;28;20464;-39
2020/12/01 00:28:38;;;;;;;23.73;14.90;;;3.80;99.90;;;;;;12512121;28;20080;-38
2020/12/01 00:34:40;;;;;;;24.45;16.52;;;3.80;99.90;;;;;;12500009;28;20045;-39
2020/12/01 00:40:42;;;;;;;24.65;14.73;;;3.80;99.90;;;;;;12513889;28;20060;-39
2020/12/01 00:46:44;;;;;;;24.40;14.27;;;3.80;99.90;;;;;;12496315;28;20053;-39
2020/12/01 00:52:45;;;;;;;23.00;13.55;;;3.80;99.90;;;;;;12505546;28;20980;-39
2020/12/01 00:58:46;;;;;;;21.33;13.32;;;3.90;99.90;;;;;;12502084;28;20496;-39
2020/12/01 01:04:48;;;;;;;18.70;12.02;;;3.80;99.90;;;;;;12507886;28;20076;-39
2020/12/01 01:10:50;;;;;;;19.17;12.40;;;3.80;99.90;;;;;;12501038;28;20143;-39
2020/12/01 01:16:51;;;;;;;21.00;13.68;;;3.90;99.90;;;;;;12509702;28;20159;-39
2020/12/01 01:22:53;;;;;;;19.42;12.63;;;3.90;99.90;;;;;;12498051;28;20094;-39
2020/12/01 01:28:55;;;;;;;20.13;12.75;;;3.90;99.90;;;;;;12523013;28;20096;-39
2020/12/01 01:34:56;;;;;;;20.25;12.10;;;3.90;99.90;;;;;;12527795;28;20072;-39
2020/12/01 01:40:58;;;;;;;19.67;12.68;;;3.90;99.90;;;;;;12522996;28;20099;-39
2020/12/01 01:47:15;;;;;;;17.92;12.38;;;3.90;99.90;;;;;;12503558;28;20618;-39
2020/12/01 01:53:17;;;;;;;22.63;13.77;;;3.90;99.90;;;;;;12515324;28;20139;-39
2020/12/01 01:59:18;;;;;;;18.52;13.35;;;3.90;99.90;;;;;;12519187;28;20060;-39
2020/12/01 02:05:20;;;;;;;22.30;13.30;;;4.00;99.90;;;;;;12511724;28;20259;-39
2020/12/01 02:11:21;;;;;;;19.95;14.68;;;4.00;99.90;;;;;;12533736;28;20060;-39
2020/12/01 02:17:26;;;;;;;20.63;14.80;;;4.00;99.90;;;;;;12517490;28;20180;-40
2020/12/01 02:23:28;;;;;;;21.17;14.60;;;4.10;99.90;;;;;;12531285;28;20084;-39
2020/12/01 02:29:33;;;;;;;22.70;14.52;;;4.10;99.90;;;;;;12514549;28;20049;-39
2020/12/01 02:35:34;;;;;;;20.27;14.75;;;4.10;99.90;;;;;;12532349;28;20059;-40
2020/12/01 02:41:36;;;;;;;20.95;14.77;;;4.20;99.90;;;;;;12518305;28;20052;-39
2020/12/01 02:47:37;;;;;;;21.33;14.27;;;4.10;99.90;;;;;;12524911;28;20063;-39
2020/12/01 02:53:39;;;;;;;18.45;13.80;;;4.20;99.90;;;;;;12511527;28;20123;-39
2020/12/01 02:59:40;;;;;;;17.88;13.30;;;4.10;99.90;;;;;;12520670;28;21919;-39
2020/12/01 03:05:42;;;;;;;21.00;14.10;;;4.10;99.90;;;;;;12514128;28;20152;-39
2020/12/01 03:11:44;;;;;;;21.65;14.73;;;4.10;99.90;;;;;;12518211;28;20084;-39
2020/12/01 03:17:46;;;;;;;22.10;15.50;;;4.10;99.90;;;;;;12504492;28;20175;-39
2020/12/01 03:23:47;;;;;;;26.17;17.20;;;4.10;99.90;;;;;;12509932;28;20079;-39
2020/12/01 03:29:48;;;;;;;23.73;16.27;;;4.10;99.90;;;;;;12524099;28;20048;-39
2020/12/01 03:35:50;;;;;;;21.88;15.93;;;4.10;99.90;;;;;;12482971;28;20075;-39
2020/12/01 03:41:51;;;;;;;21.50;15.75;;;4.10;99.90;;;;;;12519629;28;20472;-39
2020/12/01 03:47:54;;;;;;;21.80;15.68;;;4.10;99.90;;;;;;12515736;28;20076;-39
2020/12/01 03:53:55;;;;;;;24.10;16.83;;;4.10;99.90;;;;;;12519180;28;20663;-39
2020/12/01 03:59:57;;;;;;;24.27;16.70;;;4.10;99.90;;;;;;12508345;28;20128;-40
2020/12/01 04:05:58;;;;;;;22.92;17.23;;;4.10;99.90;;;;;;12513475;28;20080;-39
2020/12/01 04:11:59;;;;;;;22.08;16.58;;;4.10;99.90;;;;;;12492832;28;20076;-39
2020/12/01 04:18:01;;;;;;;21.45;14.18;;;4.10;99.90;;;;;;12516180;28;20119;-39
2020/12/01 04:24:03;;;;;;;21.45;15.27;;;4.10;99.90;;;;;;12502125;28;20083;-39
2020/12/01 04:30:06;;;;;;;21.85;14.90;;;4.10;99.90;;;;;;12509550;28;20053;-39
2020/12/01 04:36:08;;;;;;;17.13;13.15;;;4.10;99.90;;;;;;12492182;28;20143;-39
2020/12/01 04:42:16;;;;;;;21.73;14.07;;;4.10;99.90;;;;;;12497048;28;20049;-40
2020/12/01 04:48:32;;;;;;;16.35;12.15;;;4.10;99.90;;;;;;12507212;28;20052;-40
2020/12/01 04:54:42;;;;;;;19.25;13.18;;;4.10;99.90;;;;;;12509564;28;20460;-39
2020/12/01 05:01:08;;;;;;;16.08;11.95;;;4.10;99.90;;;;;;12516148;28;20069;-39
2020/12/01 05:07:37;;;;;;;17.85;12.70;;;4.10;99.90;;;;;;12502531;28;20080;-39
2020/12/01 05:13:39;;;;;;;17.75;12.65;;;4.10;99.90;;;;;;12502057;28;20045;-39
2020/12/01 05:19:42;;;;;;;19.92;13.02;;;4.10;99.90;;;;;;12510103;28;20041;-39
2020/12/01 05:25:44;;;;;;;21.75;14.18;;;4.10;99.90;;;;;;12516524;28;20049;-39
2020/12/01 05:31:46;;;;;;;19.58;13.65;;;4.10;99.90;;;;;;12507739;28;20052;-39
2020/12/01 05:37:57;;;;;;;19.73;13.23;;;4.10;99.90;;;;;;12511907;28;20037;-39
2020/12/01 05:44:02;;;;;;;18.95;13.05;;;4.10;99.90;;;;;;12507032;28;20056;-39
2020/12/01 05:50:09;;;;;;;;;;;4.10;99.90;;;;;;12507990;28;20128;-39
2020/12/01 05:56:16;;;;;;;18.95;12.93;;;4.00;99.90;;;;;;12520446;28;19924;-40
2020/12/01 06:02:19;;;;;;;20.23;13.13;;;4.10;99.90;;;;;;12518559;28;20084;-39
2020/12/01 06:08:39;;;;;;;25.20;13.40;;;4.10;99.90;;;;;;12499303;28;20437;-39
2020/12/01 06:14:54;;;;;;;21.08;12.93;;;4.10;99.90;;;;;;12511578;28;20136;-39
2020/12/01 06:21:08;;;;;;;21.55;13.93;;;4.10;99.90;;;;;;12518542;28;20469;-39
2020/12/01 06:27:28;;;;;;;25.08;14.70;;;4.10;99.90;;;;;;12505208;28;20381;-39
2020/12/01 06:33:38;;;;;;;32.22;15.20;;;4.10;99.90;;;;;;12510835;28;20053;-39
2020/12/01 06:39:47;;;;;;;27.77;14.52;;;4.10;99.90;;;;;;12517232;28;20388;-39
2020/12/01 06:45:53;;;;;;;25.08;14.90;;;4.10;99.90;;;;;;12512978;28;20056;-39
2020/12/01 06:51:58;;;;;;;26.25;14.95;;;4.20;99.90;;;;;;12508095;28;20060;-40
2020/12/01 06:58:07;;;;;;;32.88;16.75;;;4.20;99.90;;;;;;12511355;28;20048;-39
2020/12/01 07:04:08;;;;;;;33.63;17.60;;;4.20;99.90;;;;;;12507871;28;20479;-39
2020/12/01 07:10:36;;;;;;;32.47;18.02;;;4.20;99.90;;;;;;12501143;28;20091;-39
2020/12/01 07:16:47;;;;;;;34.03;18.45;;;4.20;99.90;;;;;;12503125;28;20080;-39
2020/12/01 07:23:08;;;;;;;33.63;18.17;;;4.20;99.90;;;;;;12487564;28;20072;-39
2020/12/01 07:29:31;;;;;;;34.97;18.98;;;4.20;99.90;;;;;;12513256;28;20049;-39
2020/12/01 07:35:45;;;;;;;36.28;18.70;;;4.20;99.90;;;;;;12488306;28;20136;-39
2020/12/01 07:41:53;;;;;;;36.30;19.65;;;4.20;99.90;;;;;;12509420;28;20517;-39
2020/12/01 07:47:59;;;;;;;33.70;19.15;;;4.30;99.90;;;;;;12508719;28;20447;-39
2020/12/01 07:54:06;;;;;;;36.75;20.67;;;4.40;99.90;;;;;;12509893;28;20083;-39
2020/12/01 08:00:17;;;;;;;42.00;20.80;;;4.30;99.90;;;;;;12492948;28;20045;-39
2020/12/01 08:06:18;;;;;;;34.70;20.70;;;4.40;99.90;;;;;;12511687;28;20055;-39
2020/12/01 08:12:22;;;;;;;35.65;20.42;;;4.40;99.90;;;;;;12487876;28;20081;-39
2020/12/01 08:18:23;;;;;;;42.53;22.00;;;4.40;99.90;;;;;;12520576;28;20130;-40
2020/12/01 08:24:28;;;;;;;38.92;21.92;;;4.40;99.90;;;;;;12499879;28;20522;-39
2020/12/01 08:30:47;;;;;;;39.38;20.67;;;4.50;99.90;;;;;;12519099;28;20087;-39
2020/12/01 08:37:08;;;;;;;39.33;21.08;;;4.70;99.90;;;;;;12521820;28;20094;-39
2020/12/01 08:43:17;;;;;;;38.30;19.80;;;4.70;99.90;;;;;;12519458;28;20519;-40
2020/12/01 08:49:24;;;;;;;40.45;20.25;;;4.80;99.90;;;;;;12507747;28;20049;-39
2020/12/01 08:55:32;;;;;;;33.22;18.15;;;4.70;99.90;;;;;;12521481;28;20091;-39
2020/12/01 09:01:42;;;;;;;37.63;18.75;;;4.70;99.90;;;;;;12511342;28;20077;-39
2020/12/01 09:07:44;;;;;;;33.95;17.45;;;4.60;99.90;;;;;;12520965;28;20169;-39
2020/12/01 09:26:25;;;;;;;31.17;16.98;;;4.60;99.90;;;;;;12514738;28;20096;-39
2020/12/01 09:32:28;;;;;;;25.30;15.43;;;4.60;99.90;;;;;;12516146;28;20084;-39
2020/12/01 09:38:29;;;;;;;25.45;14.32;;;4.70;99.90;;;;;;12517971;28;20508;-40
2020/12/01 09:50:51;;;;;;;27.60;15.18;;;4.80;99.90;;;;;;12490509;28;20185;-39
2020/12/01 09:57:06;;;;;;;28.80;16.20;;;4.80;99.90;;;;;;12523970;28;20088;-40
2020/12/01 10:40:25;;;;;;;29.67;17.17;;;5.00;99.90;;;;;;12504066;28;20057;-39
2020/12/01 10:46:26;;;;;;;42.25;20.33;;;5.10;99.90;;;;;;12524976;28;20088;-38
2020/12/01 10:52:28;;;;;;;34.60;18.92;;;5.10;99.90;;;;;;12512403;28;20112;-39
2020/12/01 10:58:29;;;;;;;37.88;19.48;;;5.10;99.90;;;;;;12525369;28;20048;-38
2020/12/01 11:04:30;;;;;;;38.75;19.50;;;5.10;99.90;;;;;;12514453;28;20076;-38
2020/12/01 11:10:32;;;;;;;32.13;17.75;;;5.10;99.90;;;;;;12522442;28;20044;-39
2020/12/01 11:16:34;;;;;;;42.90;19.63;;;5.20;99.90;;;;;;12505732;28;20051;-41
2020/12/01 11:22:36;;;;;;;45.55;21.00;;;5.20;99.90;;;;;;12513668;28;20041;-38
2020/12/01 11:28:38;;;;;;;34.97;19.52;;;5.30;99.90;;;;;;12521472;28;20052;-39
2020/12/01 11:34:39;;;;;;;38.60;18.90;;;5.30;99.90;;;;;;12524706;28;20048;-38
2020/12/01 11:40:41;;;;;;;31.60;17.10;;;5.40;99.90;;;;;;12520718;28;20056;-38
2020/12/01 11:46:42;;;;;;;30.67;17.60;;;5.40;99.90;;;;;;12517215;28;20076;-39
2020/12/01 11:52:44;;;;;;;31.52;17.73;;;5.60;99.90;;;;;;12514706;28;20080;-39
2020/12/01 11:58:57;;;;;;;31.08;17.50;;;5.70;99.90;;;;;;12525072;28;20468;-38
2020/12/01 12:04:59;;;;;;;31.00;17.77;;;5.70;99.90;;;;;;12513975;28;20080;-38
2020/12/01 12:11:00;;;;;;;31.02;16.63;;;5.70;99.90;;;;;;12499315;28;20388;-39
2020/12/01 12:17:02;;;;;;;34.10;18.20;;;5.60;99.90;;;;;;12520719;28;20053;-39
2020/12/01 12:23:04;;;;;;;41.45;22.85;;;5.70;99.90;;;;;;12503077;28;20091;-39
2020/12/01 12:29:05;;;;;;;40.03;22.23;;;5.70;99.90;;;;;;12501763;28;20587;-39
2020/12/01 12:35:07;;;;;;;33.38;19.48;;;5.70;99.90;;;;;;12514304;28;20583;-39
2020/12/01 12:41:09;;;;;;;26.05;15.77;;;5.70;99.90;;;;;;12515704;28;20207;-39
2020/12/01 12:47:10;;;;;;;27.42;18.95;;;5.70;99.90;;;;;;12513511;28;20188;-39
2020/12/01 12:53:12;;;;;;;36.47;22.75;;;5.60;99.90;;;;;;12519613;28;20459;-39
2020/12/01 12:59:13;;;;;;;26.08;16.08;;;5.70;99.90;;;;;;12508079;28;20842;-39
2020/12/01 13:05:15;;;;;;;39.50;24.17;;;5.70;99.90;;;;;;12508822;28;20080;-38
2020/12/01 13:11:27;;;;;;;28.42;20.38;;;5.70;99.90;;;;;;12502200;28;20064;-39
2020/12/01 13:17:28;;;;;;;27.73;19.45;;;5.60;99.90;;;;;;12511639;28;20059;-39
2020/12/01 13:23:30;;;;;;;16.27;11.35;;;5.60;99.90;;;;;;12525780;28;20072;-39
2020/12/01 13:29:31;;;;;;;14.80;10.80;;;5.60;99.90;;;;;;12526879;28;20057;-38
2020/12/01 13:35:33;;;;;;;16.75;10.68;;;5.50;99.90;;;;;;12509261;28;20090;-38
2020/12/01 13:41:35;;;;;;;14.65;10.48;;;5.40;99.90;;;;;;12490465;28;20288;-38
2020/12/01 13:47:38;;;;;;;13.55;10.52;;;5.30;99.90;;;;;;12518309;28;20045;-38
2020/12/01 13:53:40;;;;;;;14.57;9.02;;;5.30;99.90;;;;;;12517067;28;20089;-38
2020/12/01 13:59:41;;;;;;;22.45;11.02;;;5.30;99.90;;;;;;12514980;28;20080;-38
2020/12/01 14:05:42;;;;;;;13.82;8.95;;;5.30;99.90;;;;;;12516435;28;20079;-38
2020/12/01 14:11:46;;;;;;;15.30;9.10;;;5.30;99.90;;;;;;12511507;28;20224;-39
2020/12/01 14:17:48;;;;;;;13.00;8.20;;;5.30;99.90;;;;;;12512512;28;20094;-38
2020/12/01 14:23:49;;;;;;;12.93;8.70;;;5.40;99.90;;;;;;12511438;28;20041;-39
2020/12/01 14:29:50;;;;;;;16.77;8.95;;;5.40;99.90;;;;;;12515009;28;20126;-39
2020/12/01 14:35:52;;;;;;;14.00;8.68;;;5.40;99.90;;;;;;12502003;28;20083;-39
2020/12/01 14:42:05;;;;;;;20.05;10.68;;;5.40;99.90;;;;;;12498783;28;20087;-38
2020/12/01 14:48:24;;;;;;;19.65;11.02;;;5.40;99.90;;;;;;12497119;28;20048;-39
2020/12/01 14:54:27;;;;;;;24.83;10.85;;;5.40;99.90;;;;;;12515180;28;20083;-39
2020/12/01 15:00:46;;;;;;;19.67;10.35;;;5.40;99.90;;;;;;12518675;28;20117;-39
2020/12/01 15:07:11;;;;;;;38.85;12.32;;;5.30;99.90;;;;;;12498358;28;20089;-38
2020/12/01 15:13:13;;;;;;;;;;;5.30;99.90;;;;;;12496454;28;20052;-39
2020/12/01 15:19:27;;;;;;;13.95;9.30;;;5.30;99.90;;;;;;12514441;28;19932;-40
2020/12/01 15:25:30;;;;;;;17.73;10.13;;;5.20;99.90;;;;;;12519613;28;20627;-39
2020/12/01 15:31:32;;;;;;;18.10;10.77;;;5.20;99.90;;;;;;12511873;28;20056;-39
2020/12/01 15:37:34;;;;;;;23.85;11.88;;;5.20;99.90;;;;;;12516884;28;20397;-39
2020/12/01 15:43:39;;;;;;;24.13;12.95;;;5.20;99.90;;;;;;12490942;28;20258;-38
2020/12/01 15:49:40;;;;;;;28.30;15.40;;;5.20;99.90;;;;;;12494649;28;20095;-39
2020/12/01 15:56:30;;;;;;;18.88;12.60;;;5.10;99.90;;;;;;12517945;28;20048;-39
2020/12/01 16:03:10;;;;;;;26.88;16.00;;;5.10;99.90;;;;;;12480431;28;20139;-39
2020/12/01 16:09:31;;;;;;;26.00;15.35;;;5.10;99.90;;;;;;12502920;28;20053;-39
2020/12/01 16:15:57;;;;;;;40.53;16.92;;;5.10;99.90;;;;;;12485826;28;20057;-39
2020/12/01 16:22:01;;;;;;;38.40;18.60;;;5.00;99.90;;;;;;12494569;28;20099;-39
2020/12/01 16:28:21;;;;;;;33.85;17.27;;;5.00;99.90;;;;;;12507027;28;20508;-38
2020/12/01 16:34:22;;;;;;;55.30;19.83;;;4.90;99.90;;;;;;12517728;28;20460;-39
2020/12/01 16:40:39;;;;;;;40.15;17.45;;;4.90;99.90;;;;;;12511356;28;20131;-38
2020/12/01 16:46:52;;;;;;;29.95;14.98;;;4.90;99.90;;;;;;12518467;28;20049;-39
2020/12/01 16:53:09;;;;;;;29.63;15.73;;;4.90;99.90;;;;;;12502214;28;20053;-38
2020/12/01 16:59:22;;;;;;;28.27;15.27;;;4.90;99.90;;;;;;12517830;28;20079;-39
2020/12/01 17:05:55;;;;;;;30.08;16.85;;;4.90;99.90;;;;;;12511547;28;20205;-38
2020/12/01 17:12:34;;;;;;;44.58;17.25;;;4.80;99.90;;;;;;12509963;28;20401;-38
2020/12/01 17:18:36;;;;;;;29.67;16.60;;;4.70;99.90;;;;;;12520929;28;20076;-38
2020/12/01 17:24:40;;;;;;;30.15;16.60;;;4.70;99.90;;;;;;12523740;28;20079;-39
2020/12/01 17:30:56;;;;;;;25.90;16.40;;;4.70;99.90;;;;;;12493842;28;20131;-39
2020/12/01 17:37:20;;;;;;;28.90;15.75;;;4.60;99.90;;;;;;12506181;28;20088;-39
2020/12/01 17:43:34;;;;;;;26.67;15.07;;;4.60;99.90;;;;;;12512935;28;20055;-39
2020/12/01 17:49:44;;;;;;;43.28;18.20;;;4.60;99.90;;;;;;12512225;28;20049;-38
2020/12/01 17:55:48;;;;;;;38.90;18.58;;;4.70;99.90;;;;;;12510945;28;20397;-39
2020/12/01 18:01:51;;;;;;;32.83;17.98;;;4.60;99.90;;;;;;12504962;28;20100;-38
2020/12/01 18:08:02;;;;;;;32.58;16.75;;;4.60;99.90;;;;;;12512371;28;20050;-38
2020/12/01 18:14:21;;;;;;;44.78;18.27;;;4.60;99.90;;;;;;12507168;28;20057;-39
2020/12/01 18:20:26;;;;;;;34.10;16.75;;;4.60;99.90;;;;;;12502286;28;20055;-38
2020/12/01 18:26:49;;;;;;;32.60;15.80;;;4.60;99.90;;;;;;12520501;28;20584;-38
2020/12/01 18:33:09;;;;;;;22.08;13.90;;;4.60;99.90;;;;;;12517028;28;20090;-38
2020/12/01 18:39:10;;;;;;;23.65;13.70;;;4.60;99.90;;;;;;12514691;28;20053;-38
2020/12/01 18:45:38;;;;;;;25.27;15.02;;;4.60;99.90;;;;;;12513966;28;21140;-38
2020/12/01 18:51:41;;;;;;;22.67;13.68;;;4.50;99.90;;;;;;12506417;28;20052;-38
2020/12/01 18:57:43;;;;;;;33.20;16.35;;;4.50;99.90;;;;;;12501593;28;20049;-38
2020/12/01 19:03:45;;;;;;;28.55;15.50;;;4.50;99.90;;;;;;12513213;28;20041;-38
2020/12/01 19:09:46;;;;;;;39.67;18.55;;;4.60;99.90;;;;;;12503446;28;20080;-38
2020/12/01 19:15:48;;;;;;;53.47;20.00;;;4.60;99.90;;;;;;12511072;28;20083;-38
2020/12/01 19:21:51;;;;;;;47.58;19.35;;;4.50;99.90;;;;;;12486273;28;20045;-38
2020/12/01 19:27:52;;;;;;;62.47;19.23;;;4.50;99.90;;;;;;12493853;28;20076;-38
2020/12/01 19:33:53;;;;;;;97.90;22.75;;;4.50;99.90;;;;;;12494769;28;20089;-38
2020/12/01 19:39:54;;;;;;;71.28;22.25;;;4.50;99.90;;;;;;12501682;28;20516;-38
2020/12/01 19:45:56;;;;;;;60.17;21.75;;;4.50;99.90;;;;;;12506301;28;20088;-39
2020/12/01 19:51:57;;;;;;;47.90;20.60;;;4.40;99.90;;;;;;12493192;28;20083;-38
2020/12/01 19:57:58;;;;;;;46.00;20.55;;;4.40;99.90;;;;;;12510572;28;20083;-38
2020/12/01 20:04:00;;;;;;;49.83;21.00;;;4.40;99.90;;;;;;12506687;28;20048;-38
2020/12/01 20:10:04;;;;;;;104.70;22.25;;;4.40;99.90;;;;;;12503743;28;20063;-39
2020/12/01 20:16:07;;;;;;;49.30;19.67;;;4.40;99.90;;;;;;12513657;28;20080;-38
2020/12/01 20:22:09;;;;;;;53.25;20.80;;;4.40;99.90;;;;;;12496793;28;20081;-39
2020/12/01 20:28:10;;;;;;;36.10;18.50;;;4.40;99.90;;;;;;12496681;28;20057;-38
2020/12/01 20:34:11;;;;;;;37.15;18.48;;;4.40;99.90;;;;;;12504333;28;20439;-38
2020/12/01 20:40:28;;;;;;;39.45;16.98;;;4.40;99.90;;;;;;12494441;28;20075;-38
2020/12/01 20:46:29;;;;;;;30.92;15.50;;;4.40;99.90;;;;;;12511226;28;20044;-38
2020/12/01 20:52:30;;;;;;;27.38;14.13;;;4.30;99.90;;;;;;12497713;28;20087;-38
2020/12/01 20:58:32;;;;;;;27.83;12.98;;;4.30;99.90;;;;;;12508124;28;20430;-38
2020/12/01 21:04:33;;;;;;;24.23;11.90;;;4.30;99.90;;;;;;12513344;28;20476;-38
2020/12/01 21:10:34;;;;;;;22.77;11.35;;;4.20;99.90;;;;;;12516793;28;20065;-38
2020/12/01 21:16:36;;;;;;;32.95;12.57;;;4.30;99.90;;;;;;12510339;28;20148;-38
2020/12/01 21:22:38;;;;;;;23.60;12.13;;;4.30;99.90;;;;;;12509139;28;20476;-39
2020/12/01 21:28:42;;;;;;;29.05;12.65;;;4.30;99.90;;;;;;12504712;28;20139;-38
2020/12/01 21:34:49;;;;;;;24.80;11.75;;;4.30;99.90;;;;;;12484422;28;20504;-39
2020/12/01 21:40:51;;;;;;;27.52;12.60;;;4.30;99.90;;;;;;12494820;28;20495;-38
2020/12/01 21:46:52;;;;;;;25.55;12.15;;;4.30;99.90;;;;;;12530485;28;20126;-39
2020/12/01 21:53:12;;;;;;;29.77;12.70;;;4.30;99.90;;;;;;12517884;28;20139;-39
2020/12/01 21:59:44;;;;;;;28.10;12.45;;;4.20;99.90;;;;;;12513347;28;20056;-38
2020/12/01 22:05:56;;;;;;;25.13;13.82;;;4.20;99.90;;;;;;12508697;28;20072;-38
2020/12/01 22:12:19;;;;;;;27.27;13.10;;;4.20;99.90;;;;;;12505906;28;21001;-38
2020/12/01 22:18:27;;;;;;;29.45;14.48;;;4.10;99.90;;;;;;12520764;28;20060;-38
2020/12/01 22:24:51;;;;;;;29.98;13.98;;;4.10;99.90;;;;;;12508111;28;20083;-38
2020/12/01 22:31:16;;;;;;;27.45;13.60;;;4.20;99.90;;;;;;12514355;28;20053;-38
2020/12/01 22:37:20;;;;;;;34.55;14.40;;;4.20;99.90;;;;;;12528535;28;20477;-39
2020/12/01 22:43:45;;;;;;;32.80;14.57;;;4.20;99.90;;;;;;12504901;28;20388;-38
2020/12/01 22:50:08;;;;;;;31.02;14.85;;;4.20;99.90;;;;;;12514952;28;20091;-38
2020/12/01 22:56:44;;;;;;;35.80;15.60;;;4.20;99.90;;;;;;12509514;28;20168;-38
2020/12/01 23:02:45;;;;;;;;;;;4.20;99.90;;;;;;12506602;28;20072;-38
2020/12/01 23:09:03;;;;;;;34.92;14.18;;;4.20;99.90;;;;;;12511189;28;19971;-38
2020/12/01 23:15:11;;;;;;;31.73;15.02;;;4.20;99.90;;;;;;12518398;28;20087;-38
2020/12/01 23:21:13;;;;;;;35.38;16.17;;;4.20;99.90;;;;;;12517872;28;20068;-39
2020/12/01 23:27:33;;;;;;;34.13;15.27;;;4.20;99.90;;;;;;12516988;28;20083;-39
2020/12/01 23:33:35;;;;;;;34.28;15.88;;;4.20;99.90;;;;;;12511631;28;20049;-38
2020/12/01 23:39:36;;;;;;;37.85;16.23;;;4.20;99.90;;;;;;12486556;28;20056;-38
2020/12/01 23:45:57;;;;;;;55.17;16.63;;;4.30;99.90;;;;;;12516010;28;20052;-39
2020/12/01 23:52:01;;;;;;;49.38;16.98;;;4.30;99.90;;;;;;12505854;28;20056;-38
2020/12/01 23:58:07;;;;;;;109.93;19.10;;;4.30;99.90;;;;;;12510846;28;20080;-39
